• Join FlightAware (Why Join?)
  • Login
  • US Flag 
11:27PM EDT


 

Airport Tracker/Info


-or-


 

Live Flight TrackerFlight Track Log ✈ N9769H ✈ 16-Jun-2013 ✈ KCSV - KCGI

Flight Track Log - Related Links

Times and Time Zones

All times are in EDT time to prevent confusion due to time zone crossing. See the N9769H flight status page for this flight to view local times or setup timezone preferences in your user account.

Time Position Orientation Groundspeed Altitude Reporting Facility
EDT Latitude Longitude Course Direction KTS MPH feet Rate Location/Type
03:42PM 35.9797 -85.1858 292° West 75 86 4,300  Level Memphis Center
03:43PM 35.9889 -85.2058 300° West 41 47 4,900 540 Climbing Memphis Center
03:44PM 36.0006 -85.2333 298° West 58 67 5,400 420 Climbing Memphis Center
03:45PM 36.0100 -85.2611 293° West 80 92 5,800 420 Climbing Memphis Center
03:46PM 36.0217 -85.2911 296° West 91 105 6,300 480 Climbing Memphis Center
03:47PM 36.0008 -85.2690 292° West  Level FlightAware Approximate
03:47PM 36.0333 -85.3186 298° West 91 105 6,800  Level Memphis Center
03:48PM 36.0447 -85.3461 297° West 91 105 7,400 420 Climbing Memphis Center
03:49PM 36.0564 -85.3736 298° West 91 105 7,700 300 Climbing Memphis Center
03:50PM 36.0617 -85.4017 283° West 91 105 8,100 180 Climbing Memphis Center
03:51PM 36.0672 -85.4397 280° West 91 105 8,100  Level Memphis Center
03:52PM 36.0769 -85.4750 289° West 104 120 8,200  Climbing Memphis Center
03:53PM 36.0850 -85.5158 284° West 114 131 8,100 -60 Descending Memphis Center
03:54PM 36.0906 -85.5539 280° West 119 137 8,100  Level Memphis Center
03:55PM 36.1025 -85.5942 290° West 124 143 8,100  Level Memphis Center
03:56PM 36.1122 -85.6322 288° West 124 143 8,100  Level Memphis Center
03:57PM 36.1222 -85.6728 287° West 124 143 8,100  Level Memphis Center
03:58PM 36.1319 -85.7108 288° West 124 143 8,100  Level Memphis Center
03:59PM 36.1439 -85.7486 291° West 124 143 8,200  Climbing Memphis Center
04:00PM 36.1558 -85.7892 290° West 124 143 8,100 -60 Descending Memphis Center
04:01PM 36.1700 -85.8347 291° West 124 143 8,100  Level Memphis Center
04:02PM 36.1817 -85.8725 291° West 124 143 8,100  Level Memphis Center
04:03PM 36.1936 -85.9106 291° West 124 143 8,200  Climbing Memphis Center
04:04PM 36.2053 -85.9483 291° West 124 143 8,200  Level Memphis Center
04:05PM 36.2169 -85.9864 291° West 124 143 8,300 -60 Climbing Memphis Center
04:06PM 36.2267 -86.0219 289° West 124 143 8,100 -120 Descending Memphis Center
04:07PM 36.2406 -86.0622 293° West 124 143 8,100 -60 Level Memphis Center
04:08PM 36.2503 -86.1003 288° West 118 136 8,000 -60 Descending Memphis Center
04:09PM 36.2578 -86.1411 283° West 123 142 8,000  Level Memphis Center
04:10PM 36.2653 -86.1794 284° West 123 142 8,000  Level Memphis Center
04:11PM 36.2750 -86.2175 288° West 123 142 8,000  Level Memphis Center
04:12PM 36.2889 -86.2581 293° West 123 142 8,100  Climbing Memphis Center
04:13PM 36.3006 -86.2986 290° West 123 142 8,100  Level Memphis Center
04:15PM 36.3333 -86.3667 301° West 117 135 8,100 -60 Level Nashville TRACON
04:16PM 36.3333 -86.4000 270° West 118 136 8,000  Descending Nashville TRACON
04:17PM 36.3500 -86.4500 292° West 117 135 8,100  Climbing Nashville TRACON
04:18PM 36.3667 -86.4833 302° West 113 130 8,100  Level Nashville TRACON
04:19PM 36.3833 -86.5167 302° West 113 130 8,100 -60 Level Nashville TRACON
04:20PM 36.3833 -86.5667 270° West 116 133 8,000 -60 Descending Nashville TRACON
04:21PM 36.4000 -86.6000 302° West 115 132 8,000  Level Nashville TRACON
04:22PM 36.4167 -86.6333 302° West 114 131 8,000  Level Nashville TRACON
04:23PM 36.4333 -86.6667 302° West 115 132 8,000  Level Nashville TRACON
04:24PM 36.4333 -86.7000 270° West 113 130 8,000  Level Nashville TRACON
04:25PM 36.4500 -86.7333 302° West 115 132 8,100  Climbing Nashville TRACON
04:26PM 36.4667 -86.7833 293° West 114 131 8,100  Level Nashville TRACON
04:27PM 36.4667 -86.8167 270° West 117 135 8,100  Level Nashville TRACON
04:28PM 36.4833 -86.8500 302° West 118 136 8,100  Level Nashville TRACON
04:29PM 36.4833 -86.9000 270° West 117 135 8,100  Level Nashville TRACON
04:30PM 36.5000 -86.9333 302° West 116 133 8,100  Level Nashville TRACON
04:31PM 36.5039 -86.9622 280° West 118 136 8,100  Level Memphis Center
04:31PM 36.5086 -86.9775 291° West 119 137 8,100  Level Memphis Center
04:32PM 36.5200 -87.0131 292° West 119 137 8,100 -60 Level Memphis Center
04:33PM 36.5314 -87.0567 288° West 121 139 8,000 -60 Descending Memphis Center
04:34PM 36.5428 -87.0922 292° West 121 139 8,000  Level Memphis Center
04:35PM 36.5567 -87.1381 291° West 121 139 8,000  Level Memphis Center
04:36PM 36.5681 -87.1739 292° West 122 140 8,000  Level Memphis Center
04:37PM 36.5772 -87.2122 287° West 122 140 8,100  Climbing Memphis Center
04:38PM 36.5906 -87.2453 297° West 120 138 8,000  Descending Memphis Center
04:39PM 36.6083 -87.2861 298° West 121 139 8,100  Climbing Memphis Center
04:40PM 36.6217 -87.3217 295° West 121 139 8,000 -60 Descending Memphis Center
04:41PM 36.6372 -87.3600 297° West 122 140 8,000  Level Memphis Center
04:42PM 36.6528 -87.3981 297° West 122 140 8,000  Level Memphis Center
04:43PM 36.6683 -87.4389 295° West 122 140 8,000 -60 Level Memphis Center
04:44PM 36.6881 -87.4822 300° West 132 152 7,900 -60 Descending Memphis Center
04:45PM 36.6953 -87.5261 282° West 126 145 7,900  Level Memphis Center
04:46PM 36.7067 -87.5669 289° West 122 140 7,900  Level Memphis Center
04:47PM 36.7158 -87.6056 287° West 122 140 7,900  Level Memphis Center
04:48PM 36.7250 -87.6467 286° West 123 142 8,000  Climbing Memphis Center
04:49PM 36.7322 -87.6878 282° West 122 140 8,000  Level Memphis Center
04:50PM 36.7436 -87.7314 288° West 123 142 8,000  Level Memphis Center
04:51PM 36.7528 -87.7700 287° West 124 143 8,000  Level Memphis Center
04:52PM 36.7619 -87.8111 286° West 122 140 8,100  Climbing Memphis Center
04:53PM 36.7731 -87.8522 289° West 121 139 8,100  Level Memphis Center
04:54PM 36.7822 -87.8881 288° West 127 146 8,100  Level Memphis Center
04:55PM 36.7933 -87.9242 291° West 127 146 8,100 -60 Level Memphis Center
04:56PM 36.8067 -87.9678 291° West 127 146 8,000  Descending Memphis Center
04:57PM 36.8178 -88.0064 290° West 127 146 8,100  Climbing Memphis Center
04:58PM 36.8292 -88.0475 289° West 122 140 8,100  Level Memphis Center
04:59PM 36.8381 -88.0861 286° West 128 147 8,100  Level Memphis Center
05:00PM 36.8514 -88.1322 290° West 128 147 8,100  Level Memphis Center
05:01PM 36.8628 -88.1761 288° West 128 147 8,100  Level Memphis Center
05:02PM 36.8739 -88.2172 289° West 128 147 8,100 -60 Level Memphis Center
05:03PM 36.8828 -88.2611 284° West 128 147 8,000 -60 Descending Memphis Center
05:04PM 36.8919 -88.3050 285° West 128 147 8,000  Level Memphis Center
05:05PM 36.9011 -88.3489 285° West 128 147 8,000  Level Memphis Center
05:06PM 36.9122 -88.3953 287° West 128 147 8,000  Level Memphis Center
05:07PM 36.9211 -88.4367 285° West 128 147 8,100  Climbing Memphis Center
05:08PM 36.9322 -88.4806 288° West 128 147 8,000 -120 Descending Memphis Center
05:09PM 36.9433 -88.5244 288° West 128 147 7,900  Descending Memphis Center
05:10PM 36.9522 -88.5656 285° West 128 147 8,000  Climbing Memphis Center
05:11PM 36.9633 -88.6069 289° West 128 147 8,000  Level Memphis Center
05:12PM 36.9722 -88.6536 283° West 128 147 8,000 -180 Level Memphis Center
05:13PM 36.9853 -88.6975 290° West 128 147 7,700 -420 Descending Memphis Center
05:14PM 36.9964 -88.7439 287° West 128 147 7,200 -600 Descending Memphis Center
05:15PM 37.0053 -88.7906 283° West 134 154 6,600 -600 Descending Memphis Center
05:16PM 37.0206 -88.8344 294° West 139 160 6,000 -600 Descending Memphis Center
05:17PM 37.0336 -88.8836 288° West 139 160 5,400 -600 Descending Memphis Center
05:18PM 37.0444 -88.9275 287° West 143 165 4,800 -600 Descending Memphis Center
05:19PM 37.0533 -88.9714 284° West 143 165 4,200 -600 Descending Memphis Center
05:20PM 37.0683 -89.0153 293° West 143 165 3,600 -540 Descending Memphis Center
05:21PM 37.0792 -89.0517 290° West 143 165 3,200 -300 Descending Memphis Center
05:22PM 37.0942 -89.0906 296° West 138 159 3,000 -60 Descending Memphis Center
05:23PM 37.1092 -89.1397 291° West 129 148 3,100  Climbing Memphis Center
05:24PM 37.1178 -89.1733 288° West 129 148 3,100  Level Memphis Center
05:25PM 37.1308 -89.2122 293° West 129 148 3,100  Level Memphis Center
05:26PM 37.1417 -89.2508 289° West 129 148 3,100 -60 Level Memphis Center
05:27PM 37.1544 -89.2897 292° West 129 148 3,000 -60 Descending Memphis Center
05:28PM 37.1653 -89.3392 285° West 129 148 3,000  Level Memphis Center
05:41PM 37.1769 -89.3817 289° West  Level FlightAware Approximate